CMA CGM Volga — 5BJR2 — position and weather

sailwx.info

Track history (hours):
 
Tides and Currents Weather Stations Pressure Air Temp Water Temp Dewpoint Dewpoint Depression Visibility Wind Speed Wind Dir Waves Ship Positions

CMA CGM Volga

Last reported at 2016-Sep-24 03:30 UTC. Time now 2016-Sep-25 03:46 UTC.
Position N 59°40' E 023°41'.

Length 184 m; draft 7.3 m.

Type: Ship (hazmat cat A). MMSI: 212456000.

Date/timePositionNaut miles runAvg speedWind from/ knotsBaromVisibWave heightAir tempDewpointWater temp
2016-Sep-24 03:30N 59°40' E 023°41'2712.6
2016-Sep-24 01:22N 59°43' E 024°34'1113.1
2016-Sep-24 00:33N 59°36' E 024°50'6 0.6
2016-Sep-23 15:21N 59°32' E 024°57'10 5.5
2016-Sep-23 13:34N 59°39' E 024°45'37214.9
2016-Sep-22 12:31N 54°23' E 018°43'0 0.0
2016-Sep-22 04:32N 54°23' E 018°43'0 0.0
2016-Sep-22 03:32N 54°23' E 018°43'0 0.0
2016-Sep-22 00:31N 54°23' E 018°43'0 0.0
2016-Sep-21 23:31N 54°23' E 018°43'0 0.0
2016-Sep-21 22:31N 54°23' E 018°43'0 0.0
2016-Sep-21 19:33N 54°23' E 018°43'0 0.0
2016-Sep-21 16:33N 54°23' E 018°43'6 0.8
2016-Sep-21 09:32N 54°27' E 018°50'0 0.1
2016-Sep-21 08:32N 54°27' E 018°50'0 0.0
2016-Sep-21 05:32N 54°27' E 018°50'0 0.0
2016-Sep-21 03:32N 54°27' E 018°50'0 0.0
2016-Sep-21 02:32N 54°27' E 018°50'0 0.0
2016-Sep-20 17:33N 54°27' E 018°50'0 0.0
2016-Sep-20 14:33N 54°27' E 018°50'0 0.0
2016-Sep-20 13:33N 54°27' E 018°50'0 0.0
2016-Sep-20 10:33N 54°27' E 018°50'0 0.0
2016-Sep-20 08:33N 54°27' E 018°50'0 0.0
2016-Sep-20 07:33N 54°27' E 018°50'0 0.0
2016-Sep-20 06:33N 54°27' E 018°50'0 0.0
2016-Sep-20 02:33N 54°27' E 018°50'0 0.0
2016-Sep-19 23:24N 54°27' E 018°50'0 0.0
2016-Sep-19 19:30N 54°27' E 018°50'0 0.0
2016-Sep-19 18:33N 54°27' E 018°50'0 0.1
2016-Sep-19 16:33N 54°27' E 018°50'0 0.0
2016-Sep-19 14:27N 54°27' E 018°50'0 0.0
2016-Sep-19 13:33N 54°27' E 018°50'0 0.0
2016-Sep-19 12:33N 54°27' E 018°50'0 0.0
2016-Sep-19 11:33N 54°27' E 018°50'0 0.0
2016-Sep-19 09:33N 54°27' E 018°50'0 0.0
2016-Sep-19 07:30N 54°27' E 018°50'0 0.0
2016-Sep-19 06:33N 54°27' E 018°50'0 0.0
2016-Sep-19 03:33N 54°27' E 018°50'0 0.0
2016-Sep-19 02:33N 54°27' E 018°50'0 0.0
2016-Sep-19 00:32N 54°27' E 018°50'0 0.0
2016-Sep-18 19:31N 54°27' E 018°50'0 0.0
2016-Sep-18 15:33N 54°27' E 018°50'0 0.0
2016-Sep-18 14:33N 54°27' E 018°50'  
2016-Sep-16 03:33N 59°38' E 023°27'1414.1
2016-Sep-16 02:33N 59°42' E 023°53'2512.5
2016-Sep-16 00:33N 59°40' E 024°43'7 0.6
2016-Sep-15 12:33N 59°43' E 024°29'1914.0
2016-Sep-15 11:12N 59°37' E 023°53'25714.4
2016-Sep-14 17:20N 55°57' E 019°46'1617.0
2016-Sep-14 16:24N 55°41' E 019°37'4917.2
2016-Sep-14 13:33N 54°55' E 019°09'1717.3
2016-Sep-14 12:34N 54°38' E 019°06'20 9.9
2016-Sep-14 10:33N 54°23' E 018°43'0 0.0
2016-Sep-14 09:33N 54°23' E 018°43'0 0.0
2016-Sep-14 08:33N 54°23' E 018°43'0 0.0
2016-Sep-14 07:33N 54°23' E 018°43'0 0.0
2016-Sep-14 06:33N 54°23' E 018°43'  
Track history (hours):
 
Tides and Currents Weather Stations Pressure Air Temp Water Temp Dewpoint Dewpoint Depression Visibility Wind Speed Wind Dir Waves Ship Positions

CMA CGM Volga

Last reported at 2016-Sep-24 03:30 UTC. Time now 2016-Sep-25 03:46 UTC.
Position N 59°40' E 023°41'.

Length 184 m; draft 7.3 m.

Type: Ship (hazmat cat A). MMSI: 212456000.

Date/timePositionNaut miles runAvg speedWind from/ knotsBaromVisibWave heightAir tempDewpointWater temp
2016-Sep-24 03:30N 59°40' E 023°41'2712.6
2016-Sep-24 01:22N 59°43' E 024°34'1113.1
2016-Sep-24 00:33N 59°36' E 024°50'6 0.6
2016-Sep-23 15:21N 59°32' E 024°57'10 5.5
2016-Sep-23 13:34N 59°39' E 024°45'37214.9
2016-Sep-22 12:31N 54°23' E 018°43'0 0.0
2016-Sep-22 04:32N 54°23' E 018°43'0 0.0
2016-Sep-22 03:32N 54°23' E 018°43'0 0.0
2016-Sep-22 00:31N 54°23' E 018°43'0 0.0
2016-Sep-21 23:31N 54°23' E 018°43'0 0.0
2016-Sep-21 22:31N 54°23' E 018°43'0 0.0
2016-Sep-21 19:33N 54°23' E 018°43'0 0.0
2016-Sep-21 16:33N 54°23' E 018°43'6 0.8
2016-Sep-21 09:32N 54°27' E 018°50'0 0.1
2016-Sep-21 08:32N 54°27' E 018°50'0 0.0
2016-Sep-21 05:32N 54°27' E 018°50'0 0.0
2016-Sep-21 03:32N 54°27' E 018°50'0 0.0
2016-Sep-21 02:32N 54°27' E 018°50'0 0.0
2016-Sep-20 17:33N 54°27' E 018°50'0 0.0
2016-Sep-20 14:33N 54°27' E 018°50'0 0.0
2016-Sep-20 13:33N 54°27' E 018°50'0 0.0
2016-Sep-20 10:33N 54°27' E 018°50'0 0.0
2016-Sep-20 08:33N 54°27' E 018°50'0 0.0
2016-Sep-20 07:33N 54°27' E 018°50'0 0.0
2016-Sep-20 06:33N 54°27' E 018°50'0 0.0
2016-Sep-20 02:33N 54°27' E 018°50'0 0.0
2016-Sep-19 23:24N 54°27' E 018°50'0 0.0
2016-Sep-19 19:30N 54°27' E 018°50'0 0.0
2016-Sep-19 18:33N 54°27' E 018°50'0 0.1
2016-Sep-19 16:33N 54°27' E 018°50'0 0.0
2016-Sep-19 14:27N 54°27' E 018°50'0 0.0
2016-Sep-19 13:33N 54°27' E 018°50'0 0.0
2016-Sep-19 12:33N 54°27' E 018°50'0 0.0
2016-Sep-19 11:33N 54°27' E 018°50'0 0.0
2016-Sep-19 09:33N 54°27' E 018°50'0 0.0
2016-Sep-19 07:30N 54°27' E 018°50'0 0.0
2016-Sep-19 06:33N 54°27' E 018°50'0 0.0
2016-Sep-19 03:33N 54°27' E 018°50'0 0.0
2016-Sep-19 02:33N 54°27' E 018°50'0 0.0
2016-Sep-19 00:32N 54°27' E 018°50'0 0.0
2016-Sep-18 19:31N 54°27' E 018°50'0 0.0
2016-Sep-18 15:33N 54°27' E 018°50'0 0.0
2016-Sep-18 14:33N 54°27' E 018°50'  
2016-Sep-16 03:33N 59°38' E 023°27'1414.1
2016-Sep-16 02:33N 59°42' E 023°53'2512.5
2016-Sep-16 00:33N 59°40' E 024°43'7 0.6
2016-Sep-15 12:33N 59°43' E 024°29'1914.0
2016-Sep-15 11:12N 59°37' E 023°53'25714.4
2016-Sep-14 17:20N 55°57' E 019°46'1617.0
2016-Sep-14 16:24N 55°41' E 019°37'4917.2
2016-Sep-14 13:33N 54°55' E 019°09'1717.3
2016-Sep-14 12:34N 54°38' E 019°06'20 9.9
2016-Sep-14 10:33N 54°23' E 018°43'0 0.0
2016-Sep-14 09:33N 54°23' E 018°43'0 0.0
2016-Sep-14 08:33N 54°23' E 018°43'0 0.0
2016-Sep-14 07:33N 54°23' E 018°43'0 0.0
2016-Sep-14 06:33N 54°23' E 018°43'  

Dump ship's entire track history